Time;durP1;ratioP1;P1;durP2;ratioP2;P2;SDS_P1;SDS_P2;PMS_P1;PMS_P2;Temp;Humidity;BMP_temperature;BMP_pressure;BME280_temperature;BME280_humidity;BME280_pressure;Samples;Min_cycle;Max_cycle;Signal;HPM_P1;HPM_P2
2022/05/22 07:00:07;;;;;;;14.32;12.98;;;;;;;;;;4890707;29;20108;-84
2022/05/22 13:57:01;;;;;;;12.87;10.83;;;;;;;;;;4953641;28;20506;-86
2022/05/22 13:59:30;;;;;;;13.48;10.05;;;;;;;;;;4942963;29;20434;-80
2022/05/22 14:02:03;;;;;;;10.95;9.85;;;;;;;;;;4943093;29;20039;-85
2022/05/22 14:04:29;;;;;;;13.45;11.30;;;;;;;;;;4956668;29;20033;-86
2022/05/22 14:06:56;;;;;;;13.38;10.05;;;;;;;;;;4959616;28;20032;-89
2022/05/22 14:09:30;;;;;;;12.43;10.75;;;;;;;;;;4958519;28;20031;-88
2022/05/22 14:11:56;;;;;;;12.30;11.02;;;;;;;;;;4948339;29;20024;-90
2022/05/22 14:14:40;;;;;;;11.15;9.70;;;;;;;;;;4957410;29;20489;-88
2022/05/22 14:17:09;;;;;;;12.55;10.25;;;;;;;;;;4958460;28;20031;-94
2022/05/22 14:19:42;;;;;;;12.10;10.90;;;;;;;;;;4955983;28;20541;-90
2022/05/22 14:22:19;;;;;;;12.95;11.73;;;;;;;;;;4956960;28;20047;-91
2022/05/22 14:24:58;;;;;;;14.38;12.88;;;;;;;;;;4956792;28;20035;-91
2022/05/22 14:27:31;;;;;;;10.95;10.00;;;;;;;;;;4955974;28;20023;-89
2022/05/22 14:30:21;;;;;;;11.93;10.48;;;;;;;;;;4956455;28;20031;-89
2022/05/22 14:32:56;;;;;;;11.73;9.82;;;;;;;;;;4956860;29;20102;-90
2022/05/22 14:35:33;;;;;;;12.57;11.27;;;;;;;;;;4957562;28;20034;-94
2022/05/22 14:38:10;;;;;;;14.35;10.63;;;;;;;;;;4954479;28;20482;-88
2022/05/22 14:40:45;;;;;;;12.02;10.75;;;;;;;;;;4956352;28;20078;-90
2022/05/22 14:43:11;;;;;;;11.10;9.95;;;;;;;;;;4955928;29;20027;-91
2022/05/22 14:45:41;;;;;;;10.40;9.27;;;;;;;;;;4956658;28;20110;-88
2022/05/22 14:48:10;;;;;;;12.80;11.60;;;;;;;;;;4949697;28;20111;-91
2022/05/22 14:50:42;;;;;;;15.80;12.07;;;;;;;;;;4938581;29;20027;-89
2022/05/22 14:53:12;;;;;;;18.02;10.77;;;;;;;;;;4937112;29;20079;-89
2022/05/22 14:55:40;;;;;;;11.50;9.75;;;;;;;;;;4941739;29;20086;-89
2022/05/22 14:58:28;;;;;;;10.57;9.45;;;;;;;;;;4956631;28;20020;-89
2022/05/22 15:00:59;;;;;;;10.82;9.68;;;;;;;;;;4956604;28;20031;-91
2022/05/22 15:03:41;;;;;;;11.07;10.13;;;;;;;;;;4956071;28;20032;-90
2022/05/22 15:06:07;;;;;;;11.85;10.63;;;;;;;;;;4956070;29;20087;-87
2022/05/22 15:08:47;;;;;;;13.27;10.68;;;;;;;;;;4955616;28;20081;-84
2022/05/22 15:11:19;;;;;;;11.45;10.20;;;;;;;;;;4954339;28;20513;-87
2022/05/22 15:14:16;;;;;;;13.18;10.55;;;;;;;;;;4939645;28;20501;-85
2022/05/22 15:16:43;;;;;;;11.05;10.13;;;;;;;;;;4959301;28;20039;-84
2022/05/22 15:25:33;;;;;;;13.90;12.05;;;;;;;;;;4954907;28;20055;-84
2022/05/22 15:28:04;;;;;;;11.80;10.30;;;;;;;;;;4954809;28;20030;-86
2022/05/22 15:31:02;;;;;;;11.30;9.77;;;;;;;;;;4937891;29;20115;-87
2022/05/22 15:33:28;;;;;;;11.30;9.02;;;;;;;;;;4948158;29;20054;-87
2022/05/22 15:35:57;;;;;;;10.75;9.55;;;;;;;;;;4958099;29;20417;-86
2022/05/22 15:38:31;;;;;;;10.27;9.27;;;;;;;;;;4941044;29;20032;-87
2022/05/22 15:40:59;;;;;;;13.57;12.15;;;;;;;;;;4958046;28;20470;-87
2022/05/22 15:43:28;;;;;;;12.35;10.30;;;;;;;;;;4958182;29;20039;-88
2022/05/22 15:46:06;;;;;;;11.88;10.55;;;;;;;;;;4940930;29;20494;-88
2022/05/22 15:51:28;;;;;;;11.32;10.15;;;;;;;;;;4957802;28;20046;-84
2022/05/22 15:53:53;;;;;;;11.55;10.45;;;;;;;;;;4940617;29;20033;-84
2022/05/22 15:56:18;;;;;;;10.75;9.80;;;;;;;;;;4957634;29;20492;-85
2022/05/22 15:58:44;;;;;;;14.38;10.38;;;;;;;;;;4957925;29;20494;-85
2022/05/22 16:01:19;;;;;;;11.88;10.10;;;;;;;;;;4957458;29;20027;-85
2022/05/22 16:03:48;;;;;;;10.50;9.30;;;;;;;;;;4957696;28;20478;-85
2022/05/22 16:06:14;;;;;;;10.88;9.77;;;;;;;;;;4940322;29;20043;-86
2022/05/22 16:08:42;;;;;;;10.98;9.88;;;;;;;;;;4957672;29;20115;-85
2022/05/22 16:11:08;;;;;;;12.32;11.05;;;;;;;;;;4957435;29;20174;-84
2022/05/22 16:13:34;;;;;;;10.98;9.88;;;;;;;;;;4957347;28;20071;-86
2022/05/22 16:16:00;;;;;;;10.63;9.52;;;;;;;;;;4957239;28;20039;-85
2022/05/22 16:18:31;;;;;;;18.60;9.85;;;;;;;;;;4957347;29;20031;-84
2022/05/22 16:20:58;;;;;;;10.93;9.77;;;;;;;;;;4958064;29;20027;-85
2022/05/22 16:23:25;;;;;;;11.20;9.13;;;;;;;;;;4939960;29;20085;-85
2022/05/22 16:25:50;;;;;;;10.93;9.85;;;;;;;;;;4957112;28;20035;-84
2022/05/22 16:28:16;;;;;;;11.25;10.18;;;;;;;;;;4957300;29;20377;-83
2022/05/22 16:30:42;;;;;;;11.50;10.18;;;;;;;;;;4957216;28;20023;-83
2022/05/22 16:33:09;;;;;;;10.98;9.60;;;;;;;;;;4957090;28;20433;-83
2022/05/22 16:35:34;;;;;;;11.63;9.35;;;;;;;;;;4957029;29;20023;-83
2022/05/22 16:38:00;;;;;;;12.40;10.18;;;;;;;;;;4957028;29;20086;-83
2022/05/22 16:40:26;;;;;;;11.35;10.25;;;;;;;;;;4957229;29;20090;-85
2022/05/22 16:42:52;;;;;;;11.18;9.80;;;;;;;;;;4956657;28;20553;-84
2022/05/22 16:45:18;;;;;;;11.38;9.85;;;;;;;;;;4939619;29;20034;-83
2022/05/22 16:53:15;;;;;;;12.13;10.20;;;;;;;;;;4956881;28;20126;-84
2022/05/22 16:55:43;;;;;;;12.27;11.07;;;;;;;;;;4956483;28;20073;-84
2022/05/22 16:58:15;;;;;;;22.45;19.55;;;;;;;;;;4956618;28;20120;-85
2022/05/22 17:00:43;;;;;;;13.43;11.90;;;;;;;;;;4956921;28;20385;-83
2022/05/22 17:03:16;;;;;;;14.18;12.70;;;;;;;;;;4956611;28;20430;-86
2022/05/22 17:05:42;;;;;;;14.95;13.07;;;;;;;;;;4956429;28;20039;-87
2022/05/22 17:08:08;;;;;;;13.98;12.57;;;;;;;;;;4956574;28;20422;-85
2022/05/22 17:10:34;;;;;;;14.70;12.77;;;;;;;;;;4956319;28;20027;-87
2022/05/22 17:12:59;;;;;;;14.25;12.95;;;;;;;;;;4956335;28;20031;-85
2022/05/22 17:15:25;;;;;;;15.05;12.95;;;;;;;;;;4954608;28;20037;-83
2022/05/22 17:17:50;;;;;;;13.43;12.07;;;;;;;;;;4975720;28;20103;-83
2022/05/22 17:20:16;;;;;;;13.27;11.63;;;;;;;;;;4973043;28;20086;-84
2022/05/22 17:22:41;;;;;;;12.40;11.27;;;;;;;;;;4977517;28;20039;-84
2022/05/22 17:25:12;;;;;;;11.80;10.52;;;;;;;;;;4974937;28;20023;-81
2022/05/22 17:27:40;;;;;;;15.65;14.05;;;;;;;;;;4975467;28;20109;-82
2022/05/22 17:30:07;;;;;;;13.93;11.77;;;;;;;;;;4957641;28;20023;-78
2022/05/22 17:32:32;;;;;;;13.18;11.73;;;;;;;;;;4974692;28;20375;-81
2022/05/22 17:34:58;;;;;;;13.40;10.95;;;;;;;;;;4975090;28;20033;-80
2022/05/22 17:37:23;;;;;;;12.45;10.52;;;;;;;;;;4975144;28;20106;-82
2022/05/22 17:39:50;;;;;;;11.32;10.15;;;;;;;;;;4955672;29;20038;-85
2022/05/22 17:42:17;;;;;;;11.63;10.25;;;;;;;;;;4955728;29;20029;-86
2022/05/22 17:44:43;;;;;;;10.50;9.50;;;;;;;;;;4955732;29;20077;-85
2022/05/22 17:47:09;;;;;;;12.68;11.10;;;;;;;;;;4956011;29;20450;-85
2022/05/22 17:49:34;;;;;;;12.30;11.07;;;;;;;;;;4955716;29;20027;-85
2022/05/22 17:52:00;;;;;;;14.93;13.15;;;;;;;;;;4954202;29;20027;-84
2022/05/22 17:54:25;;;;;;;12.15;10.95;;;;;;;;;;4953675;28;20027;-85
2022/05/22 17:56:52;;;;;;;12.98;11.68;;;;;;;;;;4955233;29;20050;-82
2022/05/22 17:59:18;;;;;;;12.10;10.77;;;;;;;;;;4963178;28;20026;-85
2022/05/22 18:01:44;;;;;;;11.93;10.80;;;;;;;;;;4974014;28;20058;-80
2022/05/22 18:04:09;;;;;;;12.55;11.20;;;;;;;;;;4974657;28;20059;-83
2022/05/22 18:06:37;;;;;;;12.43;11.13;;;;;;;;;;4974840;28;20546;-78
2022/05/22 18:09:05;;;;;;;12.50;11.40;;;;;;;;;;4955379;29;20031;-85
2022/05/22 18:17:00;;;;;;;13.05;10.35;;;;;;;;;;4962903;28;20405;-84
2022/05/22 18:19:32;;;;;;;11.70;10.60;;;;;;;;;;4955786;29;20020;-83
2022/05/22 18:21:58;;;;;;;12.68;11.27;;;;;;;;;;4955406;29;20023;-84
2022/05/22 18:27:21;;;;;;;14.63;13.00;;;;;;;;;;4952226;28;20116;-83
2022/05/22 18:29:46;;;;;;;12.93;11.73;;;;;;;;;;4974469;28;20034;-83
2022/05/22 18:32:28;;;;;;;12.60;11.50;;;;;;;;;;4957124;28;20027;-83
2022/05/22 18:34:57;;;;;;;13.05;11.30;;;;;;;;;;4974653;28;20038;-84
2022/05/22 18:37:23;;;;;;;14.35;12.88;;;;;;;;;;4974501;28;20377;-85
2022/05/22 18:39:49;;;;;;;14.75;13.25;;;;;;;;;;4974798;28;20105;-84
2022/05/22 18:42:16;;;;;;;14.50;13.20;;;;;;;;;;4974382;28;20050;-83
2022/05/22 18:44:43;;;;;;;12.70;11.40;;;;;;;;;;4971097;28;20110;-83
2022/05/22 18:47:08;;;;;;;12.45;11.23;;;;;;;;;;4965961;28;20026;-81
2022/05/22 18:49:34;;;;;;;13.88;12.48;;;;;;;;;;4974409;28;20114;-83
2022/05/22 18:51:59;;;;;;;14.98;12.75;;;;;;;;;;4956796;28;20043;-80
2022/05/22 18:54:26;;;;;;;13.65;12.40;;;;;;;;;;4955084;29;20060;-81
2022/05/22 18:56:51;;;;;;;11.98;10.93;;;;;;;;;;4954838;29;20090;-83
2022/05/22 18:59:18;;;;;;;13.13;11.82;;;;;;;;;;4938165;29;20528;-83
2022/05/22 19:01:46;;;;;;;13.52;12.23;;;;;;;;;;4954925;29;20471;-83
2022/05/22 19:04:16;;;;;;;12.77;11.52;;;;;;;;;;4958191;28;20027;-83
2022/05/22 19:06:41;;;;;;;14.55;11.65;;;;;;;;;;4974209;28;20110;-79
2022/05/22 19:09:07;;;;;;;13.52;12.32;;;;;;;;;;4977979;28;20105;-83
2022/05/22 19:11:34;;;;;;;13.25;11.95;;;;;;;;;;4977716;28;20038;-83
2022/05/22 19:14:04;;;;;;;13.82;12.43;;;;;;;;;;4977824;28;20027;-83
2022/05/22 19:16:43;;;;;;;13.27;12.05;;;;;;;;;;4977967;28;20031;-82
2022/05/22 19:19:10;;;;;;;12.60;11.50;;;;;;;;;;4977990;28;20034;-84
2022/05/22 19:21:38;;;;;;;12.32;11.10;;;;;;;;;;4977518;28;20019;-81
2022/05/22 19:24:06;;;;;;;12.57;11.27;;;;;;;;;;4977527;28;20426;-82
2022/05/22 19:26:35;;;;;;;12.60;11.60;;;;;;;;;;4960206;28;20034;-83
2022/05/22 19:29:03;;;;;;;13.77;12.55;;;;;;;;;;4977905;28;20097;-82
2022/05/22 19:31:29;;;;;;;13.73;12.30;;;;;;;;;;4977886;28;20470;-81
2022/05/22 19:33:56;;;;;;;13.52;12.23;;;;;;;;;;4977846;28;20077;-78
2022/05/22 19:36:25;;;;;;;13.38;11.98;;;;;;;;;;4977656;28;20023;-78
2022/05/22 19:38:52;;;;;;;14.27;12.98;;;;;;;;;;4977541;28;20089;-78
2022/05/22 19:44:04;;;;;;;14.40;12.65;;;;;;;;;;4977754;28;20105;-78
2022/05/22 19:46:36;;;;;;;13.88;12.63;;;;;;;;;;4977410;28;20030;-78
2022/05/22 19:49:03;;;;;;;14.55;13.07;;;;;;;;;;4977259;28;20039;-78
2022/05/22 19:51:29;;;;;;;14.98;13.60;;;;;;;;;;4977379;28;20065;-78
2022/05/22 19:53:56;;;;;;;15.90;14.30;;;;;;;;;;4977462;28;20074;-78
2022/05/22 19:59:08;;;;;;;16.88;15.20;;;;;;;;;;4958350;29;20541;-78
2022/05/22 20:01:33;;;;;;;18.30;16.17;;;;;;;;;;4957701;28;20034;-78
2022/05/22 20:03:59;;;;;;;16.58;15.07;;;;;;;;;;4957989;29;20023;-80
2022/05/22 20:06:25;;;;;;;14.75;13.25;;;;;;;;;;4957660;29;20039;-78
2022/05/22 20:08:52;;;;;;;15.13;13.75;;;;;;;;;;4957922;28;20035;-78
2022/05/22 20:11:22;;;;;;;15.27;13.73;;;;;;;;;;4957631;29;20031;-81
2022/05/22 20:13:48;;;;;;;14.93;13.48;;;;;;;;;;4957765;28;20031;-84
2022/05/22 20:16:24;;;;;;;15.35;13.80;;;;;;;;;;4956623;28;20087;-84
2022/05/22 20:18:49;;;;;;;15.10;13.60;;;;;;;;;;4957609;28;20062;-83
2022/05/22 20:21:15;;;;;;;15.80;14.18;;;;;;;;;;4957389;29;20062;-78
2022/05/22 20:23:40;;;;;;;15.57;13.93;;;;;;;;;;4957304;28;20055;-78
2022/05/22 20:26:06;;;;;;;16.88;15.18;;;;;;;;;;4957387;28;20474;-78
2022/05/22 20:28:35;;;;;;;17.60;15.90;;;;;;;;;;4957256;28;20031;-79
2022/05/22 20:31:00;;;;;;;18.23;15.93;;;;;;;;;;4957275;29;20431;-79
2022/05/22 20:33:27;;;;;;;17.38;15.77;;;;;;;;;;4957142;29;20126;-79
2022/05/22 20:35:53;;;;;;;17.08;15.43;;;;;;;;;;4957369;28;20032;-78
2022/05/22 20:38:20;;;;;;;17.45;15.65;;;;;;;;;;4957175;29;20030;-78
2022/05/22 20:40:46;;;;;;;16.15;14.70;;;;;;;;;;4957158;28;20069;-78
2022/05/22 20:43:12;;;;;;;17.95;16.10;;;;;;;;;;4956724;29;20031;-79
2022/05/22 20:45:39;;;;;;;18.40;16.63;;;;;;;;;;4956900;28;20044;-81
2022/05/22 20:48:05;;;;;;;17.88;16.27;;;;;;;;;;4956936;28;20047;-78
2022/05/22 20:50:31;;;;;;;19.88;17.65;;;;;;;;;;4956907;28;20039;-79
2022/05/22 20:52:57;;;;;;;18.23;16.40;;;;;;;;;;4956759;29;20386;-79
2022/05/22 20:58:10;;;;;;;17.95;16.13;;;;;;;;;;4957092;29;20050;-81
2022/05/22 21:00:39;;;;;;;18.48;16.55;;;;;;;;;;4956609;28;20035;-85
2022/05/22 21:03:06;;;;;;;16.33;14.73;;;;;;;;;;4956606;28;20032;-84
2022/05/22 21:05:32;;;;;;;16.65;15.10;;;;;;;;;;4956655;29;20035;-84
2022/05/22 21:07:58;;;;;;;17.17;15.57;;;;;;;;;;4956514;28;20037;-78
2022/05/22 21:10:24;;;;;;;17.83;16.13;;;;;;;;;;4941521;28;20018;-83
2022/05/22 21:12:49;;;;;;;17.83;15.90;;;;;;;;;;4975039;28;20474;-82
2022/05/22 21:15:15;;;;;;;18.00;16.10;;;;;;;;;;4975823;28;20031;-81
2022/05/22 21:17:43;;;;;;;18.50;16.60;;;;;;;;;;4975053;28;20121;-82
2022/05/22 21:20:20;;;;;;;18.80;17.00;;;;;;;;;;4975580;28;20037;-81
2022/05/22 21:22:46;;;;;;;17.88;16.10;;;;;;;;;;4975293;28;20042;-81
2022/05/22 21:30:42;;;;;;;17.42;13.40;;;;;;;;;;4975782;28;20033;-80
2022/05/22 21:33:07;;;;;;;21.45;15.15;;;;;;;;;;4975338;28;20433;-80
2022/05/22 21:35:33;;;;;;;19.08;17.10;;;;;;;;;;4957938;28;20030;-80
2022/05/22 21:37:58;;;;;;;20.50;18.50;;;;;;;;;;4975319;28;20054;-80
2022/05/22 21:40:25;;;;;;;19.42;17.38;;;;;;;;;;4958274;28;20035;-81
2022/05/22 21:42:52;;;;;;;24.83;18.13;;;;;;;;;;4975354;28;20491;-81
2022/05/22 21:45:17;;;;;;;17.40;15.48;;;;;;;;;;4975466;28;20031;-81
2022/05/22 21:47:43;;;;;;;19.90;17.90;;;;;;;;;;4957807;28;20110;-81
2022/05/22 21:50:10;;;;;;;24.35;21.75;;;;;;;;;;4975119;28;20026;-80
2022/05/22 21:52:35;;;;;;;20.40;18.27;;;;;;;;;;4975203;28;20027;-81
2022/05/22 21:55:02;;;;;;;19.35;17.42;;;;;;;;;;4958071;28;20031;-81
2022/05/22 21:57:29;;;;;;;19.60;17.65;;;;;;;;;;4975059;28;20046;-81
2022/05/22 21:59:57;;;;;;;20.42;18.35;;;;;;;;;;4975168;28;20030;-81
2022/05/22 22:02:25;;;;;;;17.10;14.90;;;;;;;;;;4974736;28;20027;-81
2022/05/22 22:04:52;;;;;;;17.05;15.35;;;;;;;;;;4974900;28;20037;-81
2022/05/22 22:07:17;;;;;;;18.05;14.88;;;;;;;;;;4975043;28;20382;-81
2022/05/22 22:09:43;;;;;;;15.55;14.05;;;;;;;;;;4975123;28;20023;-81
2022/05/22 22:12:09;;;;;;;14.88;12.82;;;;;;;;;;4974894;28;20446;-81
2022/05/22 22:14:35;;;;;;;14.48;11.93;;;;;;;;;;4975074;28;20568;-81
2022/05/22 22:17:01;;;;;;;13.43;11.90;;;;;;;;;;4974786;28;20074;-80
2022/05/22 22:19:26;;;;;;;14.82;12.77;;;;;;;;;;4974981;28;20038;-81
2022/05/22 22:21:52;;;;;;;17.52;15.85;;;;;;;;;;4974761;28;20410;-81
2022/05/22 22:24:19;;;;;;;15.43;13.95;;;;;;;;;;4974702;28;20030;-81
2022/05/22 22:26:48;;;;;;;14.60;12.63;;;;;;;;;;4974666;28;20039;-81
2022/05/22 22:29:22;;;;;;;14.07;11.43;;;;;;;;;;4974772;28;20470;-81
2022/05/22 22:31:48;;;;;;;12.98;9.88;;;;;;;;;;4974490;28;20118;-81
2022/05/22 22:34:15;;;;;;;12.60;8.65;;;;;;;;;;4974554;28;20058;-81
2022/05/22 22:36:40;;;;;;;8.57;7.68;;;;;;;;;;4957342;28;20023;-81
2022/05/22 22:39:06;;;;;;;9.27;7.53;;;;;;;;;;4974545;28;20031;-81
2022/05/22 22:41:33;;;;;;;10.82;7.40;;;;;;;;;;4978434;28;20114;-81
2022/05/22 22:44:00;;;;;;;9.38;7.72;;;;;;;;;;4978450;28;20019;-81
2022/05/22 22:46:26;;;;;;;11.77;7.50;;;;;;;;;;4961088;28;20386;-81
2022/05/22 22:48:52;;;;;;;10.65;7.15;;;;;;;;;;4978478;28;20047;-81
2022/05/22 22:51:18;;;;;;;7.15;6.43;;;;;;;;;;4960953;28;20030;-80
2022/05/22 22:59:15;;;;;;;9.93;7.03;;;;;;;;;;4978359;28;20098;-81
2022/05/22 23:01:42;;;;;;;10.85;7.10;;;;;;;;;;4978235;28;20528;-81
2022/05/22 23:04:08;;;;;;;9.18;7.90;;;;;;;;;;4978234;28;20034;-81
2022/05/22 23:06:33;;;;;;;8.07;5.47;;;;;;;;;;4978039;28;20038;-80
2022/05/22 23:08:59;;;;;;;8.13;5.53;;;;;;;;;;4978085;28;20033;-81
2022/05/22 23:11:25;;;;;;;8.55;5.57;;;;;;;;;;4977822;28;20034;-81
2022/05/22 23:13:53;;;;;;;6.85;5.22;;;;;;;;;;4978157;28;20089;-81
2022/05/22 23:16:18;;;;;;;8.05;5.72;;;;;;;;;;4977926;28;20027;-81
2022/05/22 23:18:47;;;;;;;11.65;6.32;;;;;;;;;;4978230;28;20037;-80
2022/05/22 23:21:13;;;;;;;9.32;5.95;;;;;;;;;;4978223;28;20027;-81
2022/05/22 23:23:39;;;;;;;11.07;5.90;;;;;;;;;;4977827;28;20027;-80
2022/05/22 23:26:05;;;;;;;7.90;5.18;;;;;;;;;;4960353;28;20121;-81
2022/05/22 23:28:32;;;;;;;14.30;7.15;;;;;;;;;;4977843;28;20500;-81
2022/05/22 23:30:57;;;;;;;11.18;6.95;;;;;;;;;;4977760;28;20027;-81
2022/05/22 23:33:23;;;;;;;9.02;5.72;;;;;;;;;;4977524;28;20031;-80
2022/05/22 23:35:49;;;;;;;10.48;6.47;;;;;;;;;;4977746;28;20056;-80
2022/05/22 23:38:22;;;;;;;8.25;6.32;;;;;;;;;;4977449;28;20058;-80
2022/05/22 23:40:47;;;;;;;7.90;6.00;;;;;;;;;;4977762;28;20038;-81
2022/05/22 23:43:13;;;;;;;7.93;5.20;;;;;;;;;;4977272;28;20026;-80
2022/05/22 23:45:39;;;;;;;7.07;5.28;;;;;;;;;;4977672;28;20385;-81
2022/05/22 23:48:04;;;;;;;10.13;5.95;;;;;;;;;;4977364;28;20063;-81
2022/05/22 23:50:33;;;;;;;7.13;4.88;;;;;;;;;;4977156;28;20485;-81
2022/05/22 23:53:01;;;;;;;7.07;4.90;;;;;;;;;;4976219;28;20098;-81
2022/05/22 23:55:29;;;;;;;9.02;5.28;;;;;;;;;;4977282;28;20308;-81
2022/05/22 23:57:56;;;;;;;10.70;6.20;;;;;;;;;;4977449;28;20035;-80
